sensor_id;sensor_type;location;lat;lon;timestamp;P1;durP1;ratioP1;P2;durP2;ratioP2
11655;SDS011;5884;43.618;1.438;2023-03-23T05:47:52;19.27;;;12.43;;
11655;SDS011;5884;43.618;1.438;2023-03-23T05:50:19;18.07;;;12.00;;
11655;SDS011;5884;43.618;1.438;2023-03-23T05:52:47;20.03;;;11.27;;
11655;SDS011;5884;43.618;1.438;2023-03-23T05:55:15;18.93;;;12.07;;
11655;SDS011;5884;43.618;1.438;2023-03-23T05:57:43;23.73;;;13.00;;
11655;SDS011;5884;43.618;1.438;2023-03-23T06:00:10;18.77;;;12.80;;
11655;SDS011;5884;43.618;1.438;2023-03-23T06:02:48;19.00;;;11.83;;
11655;SDS011;5884;43.618;1.438;2023-03-23T06:05:16;18.90;;;12.13;;
11655;SDS011;5884;43.618;1.438;2023-03-23T06:07:44;17.00;;;12.83;;
11655;SDS011;5884;43.618;1.438;2023-03-23T06:10:12;19.73;;;12.43;;
11655;SDS011;5884;43.618;1.438;2023-03-23T06:12:40;20.20;;;12.77;;
11655;SDS011;5884;43.618;1.438;2023-03-23T06:15:08;17.13;;;12.10;;
11655;SDS011;5884;43.618;1.438;2023-03-23T06:17:37;17.63;;;12.97;;
11655;SDS011;5884;43.618;1.438;2023-03-23T06:20:07;15.60;;;11.93;;
11655;SDS011;5884;43.618;1.438;2023-03-23T06:22:36;18.30;;;12.90;;
11655;SDS011;5884;43.618;1.438;2023-03-23T06:25:04;16.57;;;11.33;;
11655;SDS011;5884;43.618;1.438;2023-03-23T06:27:33;20.37;;;13.00;;
11655;SDS011;5884;43.618;1.438;2023-03-23T06:30:01;15.93;;;12.17;;
11655;SDS011;5884;43.618;1.438;2023-03-23T06:32:29;19.47;;;12.33;;
11655;SDS011;5884;43.618;1.438;2023-03-23T06:34:57;17.90;;;12.27;;
11655;SDS011;5884;43.618;1.438;2023-03-23T06:37:26;15.53;;;11.43;;
11655;SDS011;5884;43.618;1.438;2023-03-23T06:39:53;15.70;;;11.90;;
11655;SDS011;5884;43.618;1.438;2023-03-23T06:42:21;20.67;;;11.13;;
11655;SDS011;5884;43.618;1.438;2023-03-23T06:44:50;16.00;;;11.17;;
11655;SDS011;5884;43.618;1.438;2023-03-23T06:47:18;13.20;;;10.97;;
11655;SDS011;5884;43.618;1.438;2023-03-23T06:49:45;19.23;;;11.97;;
11655;SDS011;5884;43.618;1.438;2023-03-23T06:52:12;20.87;;;11.20;;
11655;SDS011;5884;43.618;1.438;2023-03-23T06:54:41;15.93;;;11.37;;
11655;SDS011;5884;43.618;1.438;2023-03-23T06:57:08;16.23;;;10.23;;
11655;SDS011;5884;43.618;1.438;2023-03-23T06:59:36;15.80;;;10.23;;
11655;SDS011;5884;43.618;1.438;2023-03-23T07:02:03;16.07;;;9.70;;
11655;SDS011;5884;43.618;1.438;2023-03-23T07:04:30;18.70;;;10.17;;
11655;SDS011;5884;43.618;1.438;2023-03-23T07:06:57;15.47;;;9.77;;
11655;SDS011;5884;43.618;1.438;2023-03-23T07:09:25;13.70;;;9.40;;
11655;SDS011;5884;43.618;1.438;2023-03-23T07:11:53;14.10;;;10.40;;
11655;SDS011;5884;43.618;1.438;2023-03-23T07:14:20;14.97;;;9.40;;
11655;SDS011;5884;43.618;1.438;2023-03-23T07:16:48;15.13;;;9.50;;
11655;SDS011;5884;43.618;1.438;2023-03-23T07:19:15;13.67;;;9.73;;
11655;SDS011;5884;43.618;1.438;2023-03-23T07:21:43;17.23;;;10.37;;
11655;SDS011;5884;43.618;1.438;2023-03-23T07:24:10;13.57;;;9.80;;
11655;SDS011;5884;43.618;1.438;2023-03-23T07:26:39;14.30;;;10.47;;
11655;SDS011;5884;43.618;1.438;2023-03-23T07:29:08;14.17;;;9.63;;
11655;SDS011;5884;43.618;1.438;2023-03-23T07:31:35;14.70;;;10.27;;
11655;SDS011;5884;43.618;1.438;2023-03-23T07:34:03;17.83;;;11.30;;
11655;SDS011;5884;43.618;1.438;2023-03-23T07:36:31;19.63;;;10.50;;
11655;SDS011;5884;43.618;1.438;2023-03-23T07:39:02;17.47;;;10.87;;
11655;SDS011;5884;43.618;1.438;2023-03-23T07:41:30;14.53;;;10.23;;
11655;SDS011;5884;43.618;1.438;2023-03-23T07:43:58;18.40;;;11.03;;
11655;SDS011;5884;43.618;1.438;2023-03-23T07:46:27;13.13;;;10.50;;
11655;SDS011;5884;43.618;1.438;2023-03-23T07:48:54;13.57;;;10.57;;
11655;SDS011;5884;43.618;1.438;2023-03-23T07:51:22;14.33;;;10.10;;
11655;SDS011;5884;43.618;1.438;2023-03-23T07:53:50;17.77;;;10.83;;
11655;SDS011;5884;43.618;1.438;2023-03-23T07:56:18;18.40;;;10.70;;
11655;SDS011;5884;43.618;1.438;2023-03-23T07:58:45;14.33;;;10.50;;
11655;SDS011;5884;43.618;1.438;2023-03-23T08:01:13;14.10;;;11.17;;
11655;SDS011;5884;43.618;1.438;2023-03-23T08:03:42;15.43;;;11.30;;
11655;SDS011;5884;43.618;1.438;2023-03-23T08:06:10;15.80;;;10.40;;
11655;SDS011;5884;43.618;1.438;2023-03-23T08:08:37;16.70;;;11.33;;
11655;SDS011;5884;43.618;1.438;2023-03-23T08:11:05;14.63;;;10.53;;
11655;SDS011;5884;43.618;1.438;2023-03-23T08:13:33;12.10;;;10.20;;
11655;SDS011;5884;43.618;1.438;2023-03-23T08:16:00;14.17;;;10.03;;
11655;SDS011;5884;43.618;1.438;2023-03-23T08:18:28;12.63;;;10.20;;
11655;SDS011;5884;43.618;1.438;2023-03-23T08:20:57;19.60;;;10.37;;
11655;SDS011;5884;43.618;1.438;2023-03-23T08:23:24;17.57;;;10.13;;
11655;SDS011;5884;43.618;1.438;2023-03-23T08:25:52;15.10;;;10.17;;
11655;SDS011;5884;43.618;1.438;2023-03-23T08:28:19;14.43;;;10.43;;
11655;SDS011;5884;43.618;1.438;2023-03-23T08:30:47;16.93;;;10.30;;
11655;SDS011;5884;43.618;1.438;2023-03-23T08:33:14;12.57;;;9.70;;
11655;SDS011;5884;43.618;1.438;2023-03-23T08:35:42;12.90;;;9.63;;
11655;SDS011;5884;43.618;1.438;2023-03-23T08:38:12;15.23;;;9.50;;
11655;SDS011;5884;43.618;1.438;2023-03-23T08:40:39;11.87;;;9.03;;
11655;SDS011;5884;43.618;1.438;2023-03-23T08:43:06;12.53;;;10.07;;
11655;SDS011;5884;43.618;1.438;2023-03-23T08:45:34;12.13;;;9.37;;
11655;SDS011;5884;43.618;1.438;2023-03-23T08:48:01;13.77;;;9.50;;
11655;SDS011;5884;43.618;1.438;2023-03-23T08:50:29;11.37;;;8.20;;
11655;SDS011;5884;43.618;1.438;2023-03-23T08:52:56;11.53;;;8.80;;
11655;SDS011;5884;43.618;1.438;2023-03-23T08:55:25;12.87;;;8.17;;
11655;SDS011;5884;43.618;1.438;2023-03-23T08:57:53;13.47;;;8.10;;
11655;SDS011;5884;43.618;1.438;2023-03-23T09:00:21;14.47;;;8.30;;
11655;SDS011;5884;43.618;1.438;2023-03-23T09:02:51;14.50;;;8.83;;
11655;SDS011;5884;43.618;1.438;2023-03-23T09:05:21;9.93;;;8.20;;
11655;SDS011;5884;43.618;1.438;2023-03-23T09:07:53;11.17;;;8.10;;
11655;SDS011;5884;43.618;1.438;2023-03-23T09:10:23;10.07;;;8.23;;
11655;SDS011;5884;43.618;1.438;2023-03-23T09:12:53;11.70;;;8.10;;
11655;SDS011;5884;43.618;1.438;2023-03-23T09:15:21;11.33;;;7.80;;
11655;SDS011;5884;43.618;1.438;2023-03-23T09:17:49;9.80;;;7.93;;
11655;SDS011;5884;43.618;1.438;2023-03-23T09:20:19;11.50;;;7.43;;
11655;SDS011;5884;43.618;1.438;2023-03-23T09:22:50;11.87;;;7.70;;
11655;SDS011;5884;43.618;1.438;2023-03-23T09:25:19;9.43;;;7.70;;
11655;SDS011;5884;43.618;1.438;2023-03-23T09:27:52;11.57;;;7.53;;
11655;SDS011;5884;43.618;1.438;2023-03-23T09:30:22;11.33;;;7.83;;
11655;SDS011;5884;43.618;1.438;2023-03-23T09:32:52;10.03;;;8.00;;
11655;SDS011;5884;43.618;1.438;2023-03-23T09:35:20;15.13;;;8.13;;
11655;SDS011;5884;43.618;1.438;2023-03-23T09:37:48;11.17;;;8.00;;
11655;SDS011;5884;43.618;1.438;2023-03-23T09:40:17;10.30;;;7.87;;
11655;SDS011;5884;43.618;1.438;2023-03-23T09:42:53;10.50;;;8.27;;
11655;SDS011;5884;43.618;1.438;2023-03-23T09:45:35;14.43;;;7.77;;
11655;SDS011;5884;43.618;1.438;2023-03-23T09:51:17;9.63;;;7.90;;
11655;SDS011;5884;43.618;1.438;2023-03-23T09:54:00;9.00;;;7.60;;
11655;SDS011;5884;43.618;1.438;2023-03-23T09:56:33;11.17;;;7.40;;
11655;SDS011;5884;43.618;1.438;2023-03-23T09:59:05;10.03;;;7.23;;
11655;SDS011;5884;43.618;1.438;2023-03-23T10:01:40;9.67;;;7.10;;
11655;SDS011;5884;43.618;1.438;2023-03-23T10:04:14;10.73;;;6.40;;
11655;SDS011;5884;43.618;1.438;2023-03-23T10:06:53;11.07;;;6.80;;
11655;SDS011;5884;43.618;1.438;2023-03-23T10:09:25;7.73;;;6.60;;
11655;SDS011;5884;43.618;1.438;2023-03-23T10:11:55;7.93;;;6.50;;
11655;SDS011;5884;43.618;1.438;2023-03-23T10:14:34;10.17;;;6.80;;
11655;SDS011;5884;43.618;1.438;2023-03-23T10:17:14;11.23;;;7.80;;
11655;SDS011;5884;43.618;1.438;2023-03-23T10:19:46;10.50;;;6.97;;
11655;SDS011;5884;43.618;1.438;2023-03-23T10:22:21;7.20;;;6.43;;
11655;SDS011;5884;43.618;1.438;2023-03-23T10:24:55;11.07;;;6.10;;
11655;SDS011;5884;43.618;1.438;2023-03-23T10:27:35;11.10;;;6.13;;
11655;SDS011;5884;43.618;1.438;2023-03-23T10:30:13;7.83;;;6.27;;
11655;SDS011;5884;43.618;1.438;2023-03-23T10:32:47;10.27;;;6.13;;
11655;SDS011;5884;43.618;1.438;2023-03-23T10:35:20;7.27;;;6.10;;
11655;SDS011;5884;43.618;1.438;2023-03-23T10:37:54;11.13;;;6.07;;
11655;SDS011;5884;43.618;1.438;2023-03-23T10:40:27;12.23;;;5.87;;
11655;SDS011;5884;43.618;1.438;2023-03-23T10:43:00;10.77;;;6.20;;
11655;SDS011;5884;43.618;1.438;2023-03-23T10:45:30;8.33;;;6.23;;
11655;SDS011;5884;43.618;1.438;2023-03-23T10:48:08;9.60;;;6.60;;
11655;SDS011;5884;43.618;1.438;2023-03-23T10:50:41;6.97;;;6.10;;
11655;SDS011;5884;43.618;1.438;2023-03-23T10:53:14;11.07;;;6.70;;
11655;SDS011;5884;43.618;1.438;2023-03-23T10:55:44;9.57;;;6.30;;
11655;SDS011;5884;43.618;1.438;2023-03-23T10:58:13;8.37;;;6.50;;
11655;SDS011;5884;43.618;1.438;2023-03-23T11:00:52;8.23;;;6.60;;
11655;SDS011;5884;43.618;1.438;2023-03-23T11:03:24;7.87;;;6.37;;
11655;SDS011;5884;43.618;1.438;2023-03-23T11:06:01;11.53;;;7.50;;
11655;SDS011;5884;43.618;1.438;2023-03-23T11:08:32;10.37;;;7.30;;
11655;SDS011;5884;43.618;1.438;2023-03-23T11:11:08;8.37;;;6.83;;
11655;SDS011;5884;43.618;1.438;2023-03-23T11:13:39;9.53;;;6.93;;
11655;SDS011;5884;43.618;1.438;2023-03-23T11:16:21;11.93;;;7.30;;
11655;SDS011;5884;43.618;1.438;2023-03-23T11:18:50;9.57;;;7.37;;
11655;SDS011;5884;43.618;1.438;2023-03-23T11:21:19;10.40;;;7.03;;
11655;SDS011;5884;43.618;1.438;2023-03-23T11:23:50;10.70;;;6.77;;
11655;SDS011;5884;43.618;1.438;2023-03-23T11:26:20;10.33;;;7.73;;
11655;SDS011;5884;43.618;1.438;2023-03-23T11:28:52;9.13;;;7.40;;
11655;SDS011;5884;43.618;1.438;2023-03-23T11:31:26;12.17;;;7.23;;
11655;SDS011;5884;43.618;1.438;2023-03-23T11:33:58;8.87;;;6.60;;
11655;SDS011;5884;43.618;1.438;2023-03-23T11:36:29;8.70;;;7.20;;
11655;SDS011;5884;43.618;1.438;2023-03-23T11:39:00;9.37;;;7.10;;
11655;SDS011;5884;43.618;1.438;2023-03-23T11:41:32;10.63;;;8.00;;
11655;SDS011;5884;43.618;1.438;2023-03-23T11:44:03;13.43;;;7.73;;
11655;SDS011;5884;43.618;1.438;2023-03-23T11:46:41;9.77;;;7.20;;
11655;SDS011;5884;43.618;1.438;2023-03-23T11:49:18;8.87;;;7.83;;
11655;SDS011;5884;43.618;1.438;2023-03-23T11:51:56;10.23;;;7.60;;
11655;SDS011;5884;43.618;1.438;2023-03-23T11:54:33;10.77;;;7.73;;
11655;SDS011;5884;43.618;1.438;2023-03-23T11:57:06;12.63;;;8.13;;
11655;SDS011;5884;43.618;1.438;2023-03-23T11:59:37;13.60;;;7.60;;
11655;SDS011;5884;43.618;1.438;2023-03-23T12:02:13;9.60;;;7.33;;
11655;SDS011;5884;43.618;1.438;2023-03-23T12:05:15;14.13;;;7.03;;
11655;SDS011;5884;43.618;1.438;2023-03-23T12:08:10;9.03;;;7.03;;
11655;SDS011;5884;43.618;1.438;2023-03-23T12:10:58;7.90;;;7.10;;
11655;SDS011;5884;43.618;1.438;2023-03-23T12:13:39;10.23;;;7.43;;
11655;SDS011;5884;43.618;1.438;2023-03-23T12:16:28;12.53;;;7.67;;
11655;SDS011;5884;43.618;1.438;2023-03-23T12:19:10;9.40;;;7.20;;
11655;SDS011;5884;43.618;1.438;2023-03-23T12:21:46;14.70;;;7.53;;
11655;SDS011;5884;43.618;1.438;2023-03-23T12:24:29;9.53;;;7.03;;
11655;SDS011;5884;43.618;1.438;2023-03-23T12:27:12;9.23;;;6.93;;
11655;SDS011;5884;43.618;1.438;2023-03-23T12:29:56;10.57;;;7.07;;
11655;SDS011;5884;43.618;1.438;2023-03-23T12:32:39;10.73;;;7.23;;
11655;SDS011;5884;43.618;1.438;2023-03-23T12:35:21;11.00;;;6.70;;
11655;SDS011;5884;43.618;1.438;2023-03-23T12:38:04;9.77;;;6.80;;
11655;SDS011;5884;43.618;1.438;2023-03-23T12:40:57;9.37;;;6.03;;
11655;SDS011;5884;43.618;1.438;2023-03-23T12:43:35;7.70;;;6.10;;
11655;SDS011;5884;43.618;1.438;2023-03-23T12:46:22;8.90;;;6.27;;
11655;SDS011;5884;43.618;1.438;2023-03-23T12:49:16;9.60;;;6.87;;
11655;SDS011;5884;43.618;1.438;2023-03-23T12:51:49;8.13;;;6.27;;
11655;SDS011;5884;43.618;1.438;2023-03-23T12:54:24;8.00;;;6.03;;
11655;SDS011;5884;43.618;1.438;2023-03-23T12:56:59;10.53;;;6.60;;
11655;SDS011;5884;43.618;1.438;2023-03-23T12:59:34;8.53;;;6.33;;
11655;SDS011;5884;43.618;1.438;2023-03-23T13:02:10;8.27;;;6.53;;
11655;SDS011;5884;43.618;1.438;2023-03-23T13:04:46;10.60;;;6.77;;
11655;SDS011;5884;43.618;1.438;2023-03-23T13:07:21;8.57;;;7.40;;
11655;SDS011;5884;43.618;1.438;2023-03-23T13:09:58;11.33;;;7.50;;
11655;SDS011;5884;43.618;1.438;2023-03-23T13:12:31;11.40;;;6.70;;
11655;SDS011;5884;43.618;1.438;2023-03-23T13:15:06;10.77;;;6.20;;
11655;SDS011;5884;43.618;1.438;2023-03-23T13:17:48;9.50;;;6.77;;
11655;SDS011;5884;43.618;1.438;2023-03-23T13:23:22;11.07;;;7.17;;
11655;SDS011;5884;43.618;1.438;2023-03-23T13:25:54;10.83;;;6.63;;
11655;SDS011;5884;43.618;1.438;2023-03-23T13:28:27;9.20;;;6.60;;
11655;SDS011;5884;43.618;1.438;2023-03-23T13:30:57;9.53;;;7.17;;
11655;SDS011;5884;43.618;1.438;2023-03-23T13:33:31;10.23;;;7.30;;
11655;SDS011;5884;43.618;1.438;2023-03-23T13:36:05;13.50;;;6.90;;
11655;SDS011;5884;43.618;1.438;2023-03-23T13:38:38;7.00;;;5.67;;
11655;SDS011;5884;43.618;1.438;2023-03-23T13:41:13;8.80;;;6.00;;
11655;SDS011;5884;43.618;1.438;2023-03-23T13:43:43;11.93;;;6.47;;
11655;SDS011;5884;43.618;1.438;2023-03-23T13:46:12;8.97;;;5.80;;
11655;SDS011;5884;43.618;1.438;2023-03-23T13:49:02;9.97;;;6.20;;
11655;SDS011;5884;43.618;1.438;2023-03-23T13:52:06;10.10;;;6.67;;
11655;SDS011;5884;43.618;1.438;2023-03-23T13:54:45;9.57;;;6.20;;
11655;SDS011;5884;43.618;1.438;2023-03-23T13:57:21;9.10;;;6.40;;
11655;SDS011;5884;43.618;1.438;2023-03-23T14:00:08;10.53;;;6.13;;
11655;SDS011;5884;43.618;1.438;2023-03-23T14:02:52;14.00;;;6.23;;
11655;SDS011;5884;43.618;1.438;2023-03-23T14:05:32;7.73;;;6.37;;
11655;SDS011;5884;43.618;1.438;2023-03-23T14:08:03;11.93;;;6.47;;
11655;SDS011;5884;43.618;1.438;2023-03-23T14:10:50;12.37;;;5.57;;
11655;SDS011;5884;43.618;1.438;2023-03-23T14:13:23;9.50;;;5.90;;
11655;SDS011;5884;43.618;1.438;2023-03-23T14:15:57;8.73;;;5.70;;
11655;SDS011;5884;43.618;1.438;2023-03-23T14:18:32;8.77;;;5.50;;
11655;SDS011;5884;43.618;1.438;2023-03-23T14:21:05;14.20;;;6.97;;
11655;SDS011;5884;43.618;1.438;2023-03-23T14:23:39;9.17;;;6.33;;
11655;SDS011;5884;43.618;1.438;2023-03-23T14:26:12;10.47;;;6.63;;
11655;SDS011;5884;43.618;1.438;2023-03-23T14:28:43;9.83;;;5.70;;
11655;SDS011;5884;43.618;1.438;2023-03-23T14:31:17;10.23;;;6.63;;
11655;SDS011;5884;43.618;1.438;2023-03-23T14:33:47;11.83;;;5.77;;
11655;SDS011;5884;43.618;1.438;2023-03-23T14:36:19;10.40;;;7.00;;
11655;SDS011;5884;43.618;1.438;2023-03-23T14:38:49;16.63;;;6.60;;
11655;SDS011;5884;43.618;1.438;2023-03-23T14:41:29;9.53;;;6.13;;
11655;SDS011;5884;43.618;1.438;2023-03-23T14:43:58;10.33;;;5.90;;
11655;SDS011;5884;43.618;1.438;2023-03-23T14:46:27;10.67;;;6.47;;
11655;SDS011;5884;43.618;1.438;2023-03-23T14:48:56;9.13;;;5.90;;
11655;SDS011;5884;43.618;1.438;2023-03-23T14:51:27;9.70;;;6.07;;
11655;SDS011;5884;43.618;1.438;2023-03-23T14:53:54;10.67;;;6.90;;
11655;SDS011;5884;43.618;1.438;2023-03-23T14:56:22;11.57;;;7.03;;
11655;SDS011;5884;43.618;1.438;2023-03-23T14:59:01;10.27;;;6.73;;
11655;SDS011;5884;43.618;1.438;2023-03-23T15:01:31;17.03;;;7.77;;
11655;SDS011;5884;43.618;1.438;2023-03-23T15:04:03;14.20;;;7.20;;
11655;SDS011;5884;43.618;1.438;2023-03-23T15:06:35;12.37;;;6.17;;
11655;SDS011;5884;43.618;1.438;2023-03-23T15:09:06;12.53;;;7.53;;
11655;SDS011;5884;43.618;1.438;2023-03-23T15:11:38;9.73;;;7.30;;
11655;SDS011;5884;43.618;1.438;2023-03-23T15:14:10;16.30;;;7.90;;
11655;SDS011;5884;43.618;1.438;2023-03-23T15:16:45;8.07;;;7.13;;
11655;SDS011;5884;43.618;1.438;2023-03-23T15:19:16;13.57;;;7.87;;
11655;SDS011;5884;43.618;1.438;2023-03-23T15:21:47;9.60;;;6.53;;
11655;SDS011;5884;43.618;1.438;2023-03-23T15:24:19;13.80;;;7.80;;
11655;SDS011;5884;43.618;1.438;2023-03-23T15:26:53;11.00;;;7.53;;
11655;SDS011;5884;43.618;1.438;2023-03-23T15:29:22;10.13;;;7.30;;
11655;SDS011;5884;43.618;1.438;2023-03-23T15:31:50;14.50;;;8.57;;
11655;SDS011;5884;43.618;1.438;2023-03-23T15:34:23;19.10;;;8.17;;
11655;SDS011;5884;43.618;1.438;2023-03-23T15:36:58;8.00;;;6.70;;
11655;SDS011;5884;43.618;1.438;2023-03-23T15:39:27;9.60;;;6.90;;
11655;SDS011;5884;43.618;1.438;2023-03-23T15:41:56;18.37;;;10.80;;
11655;SDS011;5884;43.618;1.438;2023-03-23T15:44:27;10.93;;;7.03;;
11655;SDS011;5884;43.618;1.438;2023-03-23T15:49:41;12.30;;;6.80;;
11655;SDS011;5884;43.618;1.438;2023-03-23T15:52:11;11.23;;;7.83;;
11655;SDS011;5884;43.618;1.438;2023-03-23T15:54:45;16.53;;;9.93;;
11655;SDS011;5884;43.618;1.438;2023-03-23T15:57:13;12.87;;;9.23;;
11655;SDS011;5884;43.618;1.438;2023-03-23T15:59:42;18.10;;;9.13;;
11655;SDS011;5884;43.618;1.438;2023-03-23T16:02:13;18.53;;;10.77;;
11655;SDS011;5884;43.618;1.438;2023-03-23T16:04:46;24.83;;;14.30;;
11655;SDS011;5884;43.618;1.438;2023-03-23T16:07:14;15.37;;;10.27;;
11655;SDS011;5884;43.618;1.438;2023-03-23T16:09:41;11.83;;;8.20;;
11655;SDS011;5884;43.618;1.438;2023-03-23T16:12:10;17.43;;;10.87;;
11655;SDS011;5884;43.618;1.438;2023-03-23T16:14:38;15.03;;;10.60;;
11655;SDS011;5884;43.618;1.438;2023-03-23T16:17:09;13.27;;;7.33;;
11655;SDS011;5884;43.618;1.438;2023-03-23T16:19:40;12.37;;;8.70;;
11655;SDS011;5884;43.618;1.438;2023-03-23T16:22:07;11.63;;;6.57;;
11655;SDS011;5884;43.618;1.438;2023-03-23T16:24:35;13.30;;;9.27;;
11655;SDS011;5884;43.618;1.438;2023-03-23T16:27:02;19.57;;;12.83;;
11655;SDS011;5884;43.618;1.438;2023-03-23T16:29:30;16.80;;;8.97;;
11655;SDS011;5884;43.618;1.438;2023-03-23T16:31:58;31.40;;;21.73;;
11655;SDS011;5884;43.618;1.438;2023-03-23T16:34:26;22.97;;;15.23;;
11655;SDS011;5884;43.618;1.438;2023-03-23T16:36:57;25.60;;;18.23;;
11655;SDS011;5884;43.618;1.438;2023-03-23T16:39:24;21.97;;;14.77;;
11655;SDS011;5884;43.618;1.438;2023-03-23T16:41:51;18.37;;;12.03;;
11655;SDS011;5884;43.618;1.438;2023-03-23T16:44:19;19.50;;;12.27;;
11655;SDS011;5884;43.618;1.438;2023-03-23T16:46:46;19.77;;;13.10;;
11655;SDS011;5884;43.618;1.438;2023-03-23T16:49:14;17.60;;;8.53;;
11655;SDS011;5884;43.618;1.438;2023-03-23T16:51:42;16.57;;;8.10;;
11655;SDS011;5884;43.618;1.438;2023-03-23T16:54:10;32.83;;;22.67;;
11655;SDS011;5884;43.618;1.438;2023-03-23T16:56:38;26.70;;;17.23;;
11655;SDS011;5884;43.618;1.438;2023-03-23T16:59:05;22.80;;;16.47;;
11655;SDS011;5884;43.618;1.438;2023-03-23T17:01:33;23.50;;;15.23;;
11655;SDS011;5884;43.618;1.438;2023-03-23T17:04:00;21.97;;;14.70;;
11655;SDS011;5884;43.618;1.438;2023-03-23T17:06:28;30.10;;;21.30;;
11655;SDS011;5884;43.618;1.438;2023-03-23T17:08:56;24.60;;;18.37;;
11655;SDS011;5884;43.618;1.438;2023-03-23T17:11:24;20.97;;;14.80;;
11655;SDS011;5884;43.618;1.438;2023-03-23T17:13:51;21.97;;;11.50;;
11655;SDS011;5884;43.618;1.438;2023-03-23T17:16:19;20.33;;;11.27;;
11655;SDS011;5884;43.618;1.438;2023-03-23T17:18:46;16.50;;;12.27;;
11655;SDS011;5884;43.618;1.438;2023-03-23T17:21:13;14.30;;;8.20;;
11655;SDS011;5884;43.618;1.438;2023-03-23T17:23:41;16.20;;;9.00;;
11655;SDS011;5884;43.618;1.438;2023-03-23T17:26:10;12.77;;;6.03;;
11655;SDS011;5884;43.618;1.438;2023-03-23T17:28:37;16.20;;;7.40;;
11655;SDS011;5884;43.618;1.438;2023-03-23T17:31:05;19.63;;;7.97;;
11655;SDS011;5884;43.618;1.438;2023-03-23T17:33:32;20.60;;;10.90;;
11655;SDS011;5884;43.618;1.438;2023-03-23T17:35:59;20.33;;;9.73;;
11655;SDS011;5884;43.618;1.438;2023-03-23T17:38:27;17.63;;;8.73;;
11655;SDS011;5884;43.618;1.438;2023-03-23T17:40:55;12.50;;;7.47;;
11655;SDS011;5884;43.618;1.438;2023-03-23T17:43:24;15.53;;;7.57;;
11655;SDS011;5884;43.618;1.438;2023-03-23T17:45:51;31.03;;;18.40;;
11655;SDS011;5884;43.618;1.438;2023-03-23T17:48:19;35.03;;;20.50;;
11655;SDS011;5884;43.618;1.438;2023-03-23T17:50:47;18.83;;;11.13;;
11655;SDS011;5884;43.618;1.438;2023-03-23T17:53:15;15.43;;;9.30;;
11655;SDS011;5884;43.618;1.438;2023-03-23T17:55:42;17.10;;;7.10;;
11655;SDS011;5884;43.618;1.438;2023-03-23T17:58:09;15.47;;;8.30;;
11655;SDS011;5884;43.618;1.438;2023-03-23T18:00:38;17.17;;;10.77;;
11655;SDS011;5884;43.618;1.438;2023-03-23T18:03:05;24.20;;;14.33;;
11655;SDS011;5884;43.618;1.438;2023-03-23T18:05:41;18.50;;;10.63;;
11655;SDS011;5884;43.618;1.438;2023-03-23T18:08:08;14.93;;;7.97;;
11655;SDS011;5884;43.618;1.438;2023-03-23T18:10:36;17.13;;;8.50;;
11655;SDS011;5884;43.618;1.438;2023-03-23T18:13:06;15.83;;;7.77;;
11655;SDS011;5884;43.618;1.438;2023-03-23T18:15:34;13.20;;;8.13;;
11655;SDS011;5884;43.618;1.438;2023-03-23T18:18:02;20.23;;;9.10;;
11655;SDS011;5884;43.618;1.438;2023-03-23T18:20:31;18.33;;;11.43;;
11655;SDS011;5884;43.618;1.438;2023-03-23T18:23:00;27.10;;;15.10;;
11655;SDS011;5884;43.618;1.438;2023-03-23T18:25:27;21.07;;;12.97;;
11655;SDS011;5884;43.618;1.438;2023-03-23T18:27:55;16.97;;;11.43;;
11655;SDS011;5884;43.618;1.438;2023-03-23T18:30:22;19.47;;;12.20;;
11655;SDS011;5884;43.618;1.438;2023-03-23T18:32:50;18.00;;;11.13;;
11655;SDS011;5884;43.618;1.438;2023-03-23T18:35:18;20.97;;;11.27;;
11655;SDS011;5884;43.618;1.438;2023-03-23T18:37:45;20.13;;;11.70;;
11655;SDS011;5884;43.618;1.438;2023-03-23T18:40:14;23.57;;;12.87;;
11655;SDS011;5884;43.618;1.438;2023-03-23T18:42:44;21.53;;;14.70;;
11655;SDS011;5884;43.618;1.438;2023-03-23T18:45:13;35.90;;;19.50;;
11655;SDS011;5884;43.618;1.438;2023-03-23T18:47:40;26.97;;;20.47;;
11655;SDS011;5884;43.618;1.438;2023-03-23T18:50:08;55.10;;;42.10;;
11655;SDS011;5884;43.618;1.438;2023-03-23T18:52:36;79.77;;;65.33;;
11655;SDS011;5884;43.618;1.438;2023-03-23T18:55:04;58.83;;;44.10;;
11655;SDS011;5884;43.618;1.438;2023-03-23T18:57:34;58.33;;;41.57;;
11655;SDS011;5884;43.618;1.438;2023-03-23T19:00:04;37.77;;;30.13;;
11655;SDS011;5884;43.618;1.438;2023-03-23T19:02:34;30.40;;;21.50;;
11655;SDS011;5884;43.618;1.438;2023-03-23T19:05:03;48.77;;;33.37;;
11655;SDS011;5884;43.618;1.438;2023-03-23T19:07:31;41.73;;;28.57;;
11655;SDS011;5884;43.618;1.438;2023-03-23T19:09:59;45.47;;;30.90;;
11655;SDS011;5884;43.618;1.438;2023-03-23T19:12:27;50.77;;;29.20;;
11655;SDS011;5884;43.618;1.438;2023-03-23T19:14:57;50.70;;;28.60;;
11655;SDS011;5884;43.618;1.438;2023-03-23T19:17:25;33.67;;;23.07;;
11655;SDS011;5884;43.618;1.438;2023-03-23T19:19:52;25.67;;;16.30;;
11655;SDS011;5884;43.618;1.438;2023-03-23T19:22:19;24.67;;;16.30;;
11655;SDS011;5884;43.618;1.438;2023-03-23T19:24:47;22.40;;;15.67;;
11655;SDS011;5884;43.618;1.438;2023-03-23T19:27:14;25.47;;;16.80;;
11655;SDS011;5884;43.618;1.438;2023-03-23T19:29:42;30.97;;;17.23;;
11655;SDS011;5884;43.618;1.438;2023-03-23T19:32:10;21.70;;;16.70;;
11655;SDS011;5884;43.618;1.438;2023-03-23T19:34:38;22.77;;;17.37;;
11655;SDS011;5884;43.618;1.438;2023-03-23T19:37:06;22.93;;;16.90;;
11655;SDS011;5884;43.618;1.438;2023-03-23T19:39:33;19.63;;;15.60;;
11655;SDS011;5884;43.618;1.438;2023-03-23T19:42:01;24.47;;;15.83;;
11655;SDS011;5884;43.618;1.438;2023-03-23T19:44:29;23.80;;;17.60;;
11655;SDS011;5884;43.618;1.438;2023-03-23T19:46:56;29.03;;;17.20;;
11655;SDS011;5884;43.618;1.438;2023-03-23T19:49:25;27.00;;;16.73;;
11655;SDS011;5884;43.618;1.438;2023-03-23T19:51:53;21.17;;;16.33;;
11655;SDS011;5884;43.618;1.438;2023-03-23T19:54:20;28.47;;;17.13;;
11655;SDS011;5884;43.618;1.438;2023-03-23T19:56:47;24.03;;;17.07;;
11655;SDS011;5884;43.618;1.438;2023-03-23T19:59:15;20.67;;;16.13;;
11655;SDS011;5884;43.618;1.438;2023-03-23T20:01:42;24.27;;;16.90;;
11655;SDS011;5884;43.618;1.438;2023-03-23T20:04:10;23.83;;;17.07;;
11655;SDS011;5884;43.618;1.438;2023-03-23T20:06:39;25.03;;;17.13;;
11655;SDS011;5884;43.618;1.438;2023-03-23T20:09:06;23.60;;;16.53;;
11655;SDS011;5884;43.618;1.438;2023-03-23T20:11:33;21.67;;;16.57;;
11655;SDS011;5884;43.618;1.438;2023-03-23T20:14:01;26.93;;;17.30;;
11655;SDS011;5884;43.618;1.438;2023-03-23T20:16:29;28.40;;;16.83;;
11655;SDS011;5884;43.618;1.438;2023-03-23T20:18:56;25.23;;;17.00;;
11655;SDS011;5884;43.618;1.438;2023-03-23T20:21:23;24.37;;;16.87;;
11655;SDS011;5884;43.618;1.438;2023-03-23T20:23:53;22.47;;;16.40;;
11655;SDS011;5884;43.618;1.438;2023-03-23T20:26:26;24.37;;;16.93;;
11655;SDS011;5884;43.618;1.438;2023-03-23T20:28:56;22.47;;;16.37;;
11655;SDS011;5884;43.618;1.438;2023-03-23T20:31:24;23.60;;;16.13;;
11655;SDS011;5884;43.618;1.438;2023-03-23T20:33:53;23.03;;;15.20;;
11655;SDS011;5884;43.618;1.438;2023-03-23T20:36:25;21.00;;;15.40;;
11655;SDS011;5884;43.618;1.438;2023-03-23T20:38:55;21.87;;;16.07;;
11655;SDS011;5884;43.618;1.438;2023-03-23T20:41:22;21.13;;;14.37;;
11655;SDS011;5884;43.618;1.438;2023-03-23T20:43:49;23.40;;;15.00;;
11655;SDS011;5884;43.618;1.438;2023-03-23T20:46:17;20.80;;;15.07;;
11655;SDS011;5884;43.618;1.438;2023-03-23T20:48:45;24.07;;;15.63;;
11655;SDS011;5884;43.618;1.438;2023-03-23T20:51:14;25.07;;;14.77;;
11655;SDS011;5884;43.618;1.438;2023-03-23T20:53:42;20.00;;;14.30;;
11655;SDS011;5884;43.618;1.438;2023-03-23T20:56:12;20.50;;;13.33;;
11655;SDS011;5884;43.618;1.438;2023-03-23T20:58:41;17.40;;;13.33;;
11655;SDS011;5884;43.618;1.438;2023-03-23T21:01:09;17.73;;;12.67;;